Manti, UT

2:20 AM MDT on July 28, 2016 (GMT -0600)
Snow College | | Change Station

Elev 5594 ft 39.35 °N, 111.58 °W | Updated 5 minutes ago

Clear
Clear
59.5 °F
Feels Like 59.5 °F
N
2.0
Wind Variable Wind from North
Gusts 5.0 mph

Today
High -- | Low -- °F
--% Chance of Precip.
Yesterday
High -- | Low -- °F
Precip. -- in
Pressure 29.84 in
Visibility 10.0 miles
Clouds Clear
Dew Point 32 °F
Humidity 35%
Rainfall 0.00 in
Snow Depth Not available.
6:23 AM 8:41 PM
Waning Crescent, 34% visible
METAR KPUC 280753Z AUTO 01004KT 10SM CLR 19/M07 A3018 RMK AO2 SLP105 T01941067
Pressure 29.84 in
Visibility 10.0 miles
Clouds Clear
Dew Point 32 °F
Humidity 35%
Rainfall 0.00 in
Snow Depth Not available.
6:23 AM 8:41 PM
Waning Crescent, 34% visible
METAR KPUC 280753Z AUTO 01004KT 10SM CLR 19/M07 A3018 RMK AO2 SLP105 T01941067

10-Day Weather Forecast

Almanac

Astronomy

Jul. 28, 2016 Rise Set
Actual Time
Civil Twilight
Nautical Twilight
Astronomical Twilight
Moon
Length of Visible Light
Length of Day
Tomorrow will be .
, % of the Moon is Illuminated

Today's Extremes

State Highs State Lows

Community

WunderPhotos

Upload Photos

1,928,070 photos uploaded!

WunderBlog® & News

Nearby

Air Quality

  Air Quality AQ Index Pollutant
Not available.

Snow Depth

Station Depth Elevation

Earthquake Activity

City Distance Mag. Time & Date
Minimum magnitude displayed is 2.5.

Coastal Water Temperatures

Place Temperature

Stations

Nearby Weather Stations

Station Location Temp. Windchill Dew Point Humidity Wind Precip. Elev Updated Type
                   

Watches & Warnings

There are currently no watches in effect.